createdAt,value
2019-02-16T00:00:28.923Z,79.47
2019-02-16T00:03:01.399Z,72.13
2019-02-16T00:05:32.743Z,69.30
2019-02-16T00:08:04.022Z,68.17
2019-02-16T00:10:34.772Z,62.87
2019-02-16T00:13:05.841Z,73.40
2019-02-16T00:15:36.779Z,74.20
2019-02-16T00:18:07.649Z,63.93
2019-02-16T00:20:39.219Z,68.37
2019-02-16T00:23:10.303Z,69.30
2019-02-16T00:25:41.032Z,70.93
2019-02-16T00:28:12.079Z,65.47
2019-02-16T00:30:43.352Z,65.90
2019-02-16T00:33:14.401Z,60.77
2019-02-16T00:35:45.929Z,56.67
2019-02-16T00:38:16.804Z,60.00
2019-02-16T00:40:47.695Z,52.73
2019-02-16T00:43:18.732Z,60.57
2019-02-16T00:45:50.012Z,56.43
2019-02-16T00:48:21.187Z,58.60
2019-02-16T00:50:52.089Z,54.63
2019-02-16T00:53:24.154Z,51.63
2019-02-16T00:55:56.063Z,52.73
2019-02-16T00:58:27.144Z,49.30
2019-02-16T01:00:58.414Z,54.57
2019-02-16T01:03:29.340Z,50.93
2019-02-16T01:06:00.918Z,47.67
2019-02-16T01:08:32.540Z,47.20
2019-02-16T01:11:03.399Z,53.20
2019-02-16T01:13:34.255Z,59.17
2019-02-16T01:16:05.283Z,60.83
2019-02-16T01:18:36.456Z,60.37
2019-02-16T01:21:08.008Z,60.30
2019-02-16T01:23:39.606Z,61.83
2019-02-16T01:26:10.623Z,66.40
2019-02-16T01:28:41.442Z,62.80
2019-02-16T01:31:12.575Z,69.47
2019-02-16T01:33:45.600Z,62.33
2019-02-16T01:36:17.103Z,70.83
2019-02-16T01:38:48.038Z,70.50
2019-02-16T01:41:18.891Z,60.17
2019-02-16T01:43:49.686Z,90.00
2019-02-16T01:46:20.421Z,103.53
2019-02-16T01:48:51.690Z,120.03
2019-02-16T01:51:31.436Z,50.47
2019-02-16T01:53:55.619Z,43.27
2019-02-16T01:56:26.448Z,42.20
2019-02-16T01:58:57.159Z,42.03
2019-02-16T02:01:28.405Z,44.13
2019-02-16T02:03:59.437Z,50.87
2019-02-16T02:06:30.779Z,45.43
2019-02-16T02:09:01.382Z,42.40
2019-02-16T02:11:33.764Z,50.43
2019-02-16T02:14:04.754Z,46.70
2019-02-16T02:16:35.784Z,49.40
2019-02-16T02:19:06.751Z,52.23
2019-02-16T02:21:41.142Z,47.67
2019-02-16T02:24:10.643Z,52.37
2019-02-16T02:26:41.639Z,46.03
2019-02-16T02:29:12.697Z,46.80
2019-02-16T02:31:44.059Z,44.33
2019-02-16T02:34:15.300Z,34.90
2019-02-16T02:36:46.524Z,42.20
2019-02-16T02:39:17.291Z,45.40
2019-02-16T02:41:47.940Z,48.73
2019-02-16T02:44:19.313Z,46.63
2019-02-16T02:46:50.322Z,44.67
2019-02-16T02:49:21.235Z,48.00
2019-02-16T02:51:52.627Z,43.03
2019-02-16T02:54:23.493Z,42.10
2019-02-16T02:56:54.253Z,45.50
2019-02-16T02:59:25.327Z,38.53
2019-02-16T03:01:56.380Z,38.93
2019-02-16T03:04:27.194Z,42.17
2019-02-16T03:06:58.157Z,47.13
2019-02-16T03:09:28.917Z,47.20
2019-02-16T03:11:59.779Z,39.43
2019-02-16T03:14:30.861Z,52.93
2019-02-16T03:17:01.450Z,49.20
2019-02-16T03:19:32.153Z,49.37
2019-02-16T03:22:03.494Z,48.47
2019-02-16T03:24:34.701Z,56.97
2019-02-16T03:27:08.631Z,51.57
2019-02-16T03:29:42.807Z,51.47
2019-02-16T03:32:14.794Z,53.60
2019-02-16T03:34:48.673Z,57.87
2019-02-16T03:37:22.681Z,55.53
2019-02-16T03:39:53.598Z,46.00
2019-02-16T03:42:24.737Z,49.10
2019-02-16T03:44:55.915Z,49.90
2019-02-16T03:47:26.871Z,53.07
2019-02-16T03:49:57.792Z,53.40
2019-02-16T03:52:28.715Z,49.33
2019-02-16T03:54:59.696Z,55.63
2019-02-16T03:57:30.789Z,59.47
2019-02-16T04:00:01.818Z,45.43
2019-02-16T04:02:34.304Z,57.90
2019-02-16T04:05:06.129Z,59.13
2019-02-16T04:07:37.576Z,56.57
2019-02-16T04:10:08.175Z,53.00
2019-02-16T04:12:38.921Z,54.80
2019-02-16T04:15:10.338Z,53.37
2019-02-16T04:17:40.915Z,51.10
2019-02-16T04:20:12.272Z,60.20
2019-02-16T04:22:43.253Z,55.53
2019-02-16T04:25:14.255Z,58.80
2019-02-16T04:27:45.097Z,63.10
2019-02-16T04:30:16.013Z,64.93
2019-02-16T04:32:47.120Z,65.63
2019-02-16T04:35:18.158Z,60.80
2019-02-16T04:37:48.727Z,60.30
2019-02-16T04:40:19.834Z,64.37
2019-02-16T04:42:50.721Z,64.97
2019-02-16T04:45:22.157Z,65.23
2019-02-16T04:47:53.644Z,67.27
2019-02-16T04:50:24.746Z,66.87
2019-02-16T04:52:55.765Z,66.77
2019-02-16T04:55:26.956Z,67.80
2019-02-16T04:57:58.176Z,86.07
2019-02-16T05:00:29.441Z,86.37
2019-02-16T05:02:59.873Z,88.97
2019-02-16T05:05:30.802Z,85.53
2019-02-16T05:08:01.904Z,81.80
2019-02-16T05:10:33.076Z,85.53
2019-02-16T05:13:04.342Z,89.13
2019-02-16T05:15:35.240Z,78.60
2019-02-16T05:18:06.493Z,73.33
2019-02-16T05:20:37.085Z,70.40
2019-02-16T05:23:07.501Z,64.93
2019-02-16T05:25:38.856Z,64.57
2019-02-16T05:28:10.240Z,64.17
2019-02-16T05:30:41.409Z,54.77
2019-02-16T05:33:12.303Z,64.90
2019-02-16T05:35:43.308Z,56.10
2019-02-16T05:38:14.897Z,57.70
2019-02-16T05:40:45.677Z,59.60
2019-02-16T05:43:16.567Z,54.80
2019-02-16T05:45:47.659Z,66.37
2019-02-16T05:48:18.588Z,55.30
2019-02-16T05:50:49.908Z,63.00
2019-02-16T05:53:20.613Z,57.40
2019-02-16T05:55:51.616Z,56.47
2019-02-16T05:58:22.937Z,54.83
2019-02-16T06:00:54.040Z,59.03
2019-02-16T06:03:25.763Z,49.83
2019-02-16T06:05:56.838Z,59.83
2019-02-16T06:08:28.479Z,58.83
2019-02-16T06:10:59.584Z,59.87
2019-02-16T06:13:30.630Z,60.97
2019-02-16T06:16:01.760Z,62.83
2019-02-16T06:18:33.347Z,55.50
2019-02-16T06:21:04.090Z,52.77
2019-02-16T06:23:35.596Z,58.73
2019-02-16T06:26:06.542Z,59.10
2019-02-16T06:28:37.417Z,53.67
2019-02-16T06:31:08.645Z,52.77
2019-02-16T06:33:39.398Z,55.27
2019-02-16T06:36:12.201Z,61.07
2019-02-16T06:38:43.260Z,53.07
2019-02-16T06:41:14.371Z,65.50
2019-02-16T06:43:45.590Z,65.53
2019-02-16T06:46:16.853Z,64.70
2019-02-16T06:48:47.811Z,91.13
2019-02-16T06:51:19.639Z,96.10
2019-02-16T06:53:50.417Z,77.47
2019-02-16T06:56:22.936Z,77.37
2019-02-16T06:58:54.167Z,71.07
2019-02-16T07:01:26.459Z,70.53
2019-02-16T07:03:57.571Z,67.43
2019-02-16T07:06:28.638Z,53.90
2019-02-16T07:09:01.062Z,63.97
2019-02-16T07:11:33.498Z,61.70
2019-02-16T07:14:04.253Z,62.33
2019-02-16T07:16:37.613Z,63.07
2019-02-16T07:19:10.292Z,59.67
2019-02-16T07:21:41.351Z,60.93
2019-02-16T07:24:12.198Z,61.40
2019-02-16T07:26:44.820Z,62.57
2019-02-16T07:29:18.481Z,67.40
2019-02-16T07:31:49.409Z,60.27
2019-02-16T07:34:20.604Z,66.90
2019-02-16T07:36:51.747Z,64.50
2019-02-16T07:39:23.726Z,70.53
2019-02-16T07:41:57.347Z,69.77
2019-02-16T07:44:30.447Z,97.60
2019-02-16T07:47:03.027Z,130.03
2019-02-16T07:49:35.768Z,147.20
2019-02-16T07:52:08.449Z,105.43
2019-02-16T07:54:40.711Z,135.13
2019-02-16T07:57:13.680Z,134.83
2019-02-16T07:59:46.216Z,100.07
2019-02-16T08:02:18.480Z,103.27
2019-02-16T08:04:50.636Z,94.47
2019-02-16T08:07:22.901Z,92.53
2019-02-16T08:09:56.224Z,85.33
2019-02-16T08:12:28.571Z,91.83
2019-02-16T08:15:00.844Z,87.63
2019-02-16T08:17:33.292Z,91.47
2019-02-16T08:20:06.699Z,107.80
2019-02-16T08:22:38.932Z,103.17
2019-02-16T08:25:11.611Z,99.07
2019-02-16T08:27:43.719Z,98.93
2019-02-16T08:30:15.812Z,96.23
2019-02-16T08:32:48.291Z,103.07
2019-02-16T08:35:20.444Z,109.27
2019-02-16T08:37:52.813Z,118.27
2019-02-16T08:40:25.611Z,134.13
2019-02-16T08:42:57.602Z,131.77
2019-02-16T08:45:29.764Z,123.10
2019-02-16T08:48:02.203Z,128.93
2019-02-16T08:50:34.854Z,160.77
2019-02-16T08:53:07.412Z,137.57
2019-02-16T08:55:39.930Z,148.17
2019-02-16T08:58:12.492Z,142.27
2019-02-16T09:00:45.258Z,141.17
2019-02-16T09:03:18.652Z,137.37
2019-02-16T09:05:51.060Z,136.50
2019-02-16T09:08:24.876Z,148.90
2019-02-16T09:10:58.773Z,148.90
2019-02-16T09:13:30.932Z,146.00
2019-02-16T09:16:03.172Z,166.70
2019-02-16T09:18:35.699Z,150.90
2019-02-16T09:21:14.400Z,148.50
2019-02-16T09:23:41.931Z,134.87
2019-02-16T09:26:14.330Z,145.47
2019-02-16T09:28:46.882Z,128.90
2019-02-16T09:31:19.212Z,103.77
2019-02-16T09:33:51.531Z,106.60
2019-02-16T09:36:23.939Z,109.50
2019-02-16T09:38:56.460Z,103.83
2019-02-16T09:41:28.832Z,91.87
2019-02-16T09:44:01.272Z,103.80
2019-02-16T09:46:33.608Z,100.53
2019-02-16T09:49:07.671Z,92.70
2019-02-16T09:51:40.030Z,88.93
2019-02-16T09:54:12.033Z,89.80
2019-02-16T09:56:44.672Z,89.77
2019-02-16T09:59:16.968Z,85.77
2019-02-16T10:01:49.390Z,91.70
2019-02-16T10:04:21.380Z,82.50
2019-02-16T10:06:53.780Z,83.13
2019-02-16T10:09:26.139Z,82.10
2019-02-16T10:11:58.832Z,89.17
2019-02-16T10:14:30.951Z,100.83
2019-02-16T10:17:01.792Z,85.13
2019-02-16T10:19:34.673Z,70.30
2019-02-16T10:22:08.482Z,70.43
2019-02-16T10:24:41.155Z,66.37
2019-02-16T10:27:13.409Z,64.77
2019-02-16T10:29:46.034Z,62.90
2019-02-16T10:32:18.387Z,61.67
2019-02-16T10:34:50.604Z,67.10
2019-02-16T10:37:23.514Z,64.90
2019-02-16T10:39:56.460Z,57.57
2019-02-16T10:42:29.336Z,52.83
2019-02-16T10:45:02.172Z,46.43
2019-02-16T10:47:34.880Z,45.37
2019-02-16T10:50:09.076Z,57.37
2019-02-16T10:52:42.268Z,49.50
2019-02-16T10:55:14.974Z,55.70
2019-02-16T10:57:45.899Z,50.73
2019-02-16T11:00:19.121Z,52.07
2019-02-16T11:02:51.957Z,56.10
2019-02-16T11:05:24.572Z,59.43
2019-02-16T11:07:57.237Z,59.50
2019-02-16T11:10:30.178Z,56.70
2019-02-16T11:13:03.323Z,70.00
2019-02-16T11:15:36.074Z,55.37
2019-02-16T11:18:07.400Z,59.42
2019-02-16T11:20:40.210Z,48.47
2019-02-16T11:23:12.724Z,52.57
2019-02-16T11:25:45.758Z,57.55
2019-02-16T11:28:18.493Z,68.85
2019-02-16T11:30:51.488Z,53.23
2019-02-16T11:33:33.143Z,58.37
2019-02-16T11:36:09.596Z,55.40
2019-02-16T11:38:43.076Z,48.15
2019-02-16T11:41:18.845Z,44.90
2019-02-16T11:43:51.414Z,56.13
2019-02-16T11:46:25.304Z,40.17
2019-02-16T11:48:58.100Z,39.05
2019-02-16T11:51:30.998Z,37.42
2019-02-16T11:54:03.436Z,36.33
2019-02-16T11:56:37.293Z,35.17
2019-02-16T11:59:09.764Z,39.15
2019-02-16T12:01:42.212Z,43.70
2019-02-16T12:04:17.180Z,40.75
2019-02-16T12:06:50.136Z,41.42
2019-02-16T12:09:23.038Z,55.67
2019-02-16T12:11:57.593Z,41.60
2019-02-16T12:14:30.555Z,36.13
2019-02-16T12:17:03.172Z,38.63
2019-02-16T12:19:35.880Z,39.75
2019-02-16T12:22:08.434Z,35.83
2019-02-16T12:24:40.914Z,34.30
2019-02-16T12:27:13.511Z,35.83
2019-02-16T12:29:46.486Z,36.98
2019-02-16T12:32:21.197Z,36.53
2019-02-16T12:34:53.300Z,30.60
2019-02-16T12:37:25.906Z,40.40
2019-02-16T12:39:59.318Z,29.55
2019-02-16T12:42:31.559Z,26.73
2019-02-16T12:45:04.497Z,29.95
2019-02-16T12:47:37.080Z,29.12
2019-02-16T12:50:09.408Z,22.40
2019-02-16T12:52:41.831Z,26.02
2019-02-16T12:55:15.111Z,30.92
2019-02-16T12:57:47.743Z,27.82
2019-02-16T13:00:21.024Z,26.90
2019-02-16T13:02:53.955Z,27.17
2019-02-16T13:05:26.654Z,25.00
2019-02-16T13:07:59.048Z,24.85
2019-02-16T13:10:31.542Z,25.92
2019-02-16T13:13:05.852Z,29.27
2019-02-16T13:15:38.323Z,31.90
2019-02-16T13:18:10.498Z,25.60
2019-02-16T13:20:43.553Z,27.55
2019-02-16T13:23:16.343Z,30.77
2019-02-16T13:25:48.624Z,27.75
2019-02-16T13:28:21.016Z,31.05
2019-02-16T13:30:53.503Z,30.12
2019-02-16T13:33:26.563Z,25.48
2019-02-16T13:35:59.283Z,29.35
2019-02-16T13:38:31.927Z,29.90
2019-02-16T13:41:04.547Z,28.90
2019-02-16T13:43:36.732Z,32.93
2019-02-16T13:46:09.067Z,31.55
2019-02-16T13:48:41.669Z,29.98
2019-02-16T13:51:14.313Z,31.97
2019-02-16T13:53:46.955Z,36.35
2019-02-16T13:56:17.470Z,32.15
2019-02-16T13:58:50.030Z,29.35
2019-02-16T14:01:22.346Z,30.65
2019-02-16T14:03:55.133Z,29.37
2019-02-16T14:06:28.636Z,30.80
2019-02-16T14:09:01.540Z,41.15
2019-02-16T14:11:35.397Z,39.33
2019-02-16T14:14:08.459Z,31.85
2019-02-16T14:16:40.950Z,30.23
2019-02-16T14:19:12.231Z,31.93
2019-02-16T14:21:44.988Z,35.75
2019-02-16T14:24:17.675Z,29.63
2019-02-16T14:26:49.253Z,28.32
2019-02-16T14:29:20.217Z,27.67
2019-02-16T14:31:51.649Z,29.48
2019-02-16T14:34:23.580Z,27.82
2019-02-16T14:36:54.782Z,30.88
2019-02-16T14:39:30.601Z,33.35
2019-02-16T14:42:01.599Z,29.72
2019-02-16T14:44:32.517Z,33.67
2019-02-16T14:47:04.096Z,35.45
2019-02-16T14:49:35.186Z,35.08
2019-02-16T14:52:06.710Z,37.95
2019-02-16T14:54:38.105Z,35.83
2019-02-16T14:57:12.439Z,32.55
2019-02-16T14:59:43.629Z,27.90
2019-02-16T15:02:15.350Z,29.07
2019-02-16T15:04:46.557Z,28.87
2019-02-16T15:07:17.593Z,27.87
2019-02-16T15:09:48.567Z,34.65
2019-02-16T15:12:19.739Z,38.20
2019-02-16T15:14:50.470Z,29.10
2019-02-16T15:17:22.751Z,48.58
2019-02-16T15:19:53.503Z,33.20
2019-02-16T15:22:24.749Z,30.43
2019-02-16T15:24:55.439Z,31.68
2019-02-16T15:27:26.591Z,34.18
2019-02-16T15:29:57.310Z,39.10
2019-02-16T15:32:28.189Z,38.17
2019-02-16T15:34:59.512Z,40.05
2019-02-16T15:37:31.258Z,25.92
2019-02-16T15:40:01.750Z,41.53
2019-02-16T15:42:33.822Z,34.73
2019-02-16T15:45:07.589Z,37.20
2019-02-16T15:47:38.632Z,51.02
2019-02-16T15:50:11.525Z,47.58
2019-02-16T15:52:42.504Z,42.85
2019-02-16T15:55:13.472Z,34.55
2019-02-16T15:57:44.230Z,34.30
2019-02-16T16:00:17.761Z,39.18
2019-02-16T16:02:49.075Z,50.90
2019-02-16T16:05:20.277Z,83.87
2019-02-16T16:07:53.070Z,70.10
2019-02-16T16:10:25.431Z,77.60
2019-02-16T16:12:58.494Z,146.57
2019-02-16T16:15:31.166Z,134.60
2019-02-16T16:18:03.356Z,57.17
2019-02-16T16:20:35.982Z,59.13
2019-02-16T16:23:08.708Z,42.55
2019-02-16T16:25:41.429Z,37.83
2019-02-16T16:28:13.951Z,44.75
2019-02-16T16:30:46.271Z,45.75
2019-02-16T16:33:18.463Z,47.27
2019-02-16T16:35:50.589Z,59.63
2019-02-16T16:38:22.631Z,67.20
2019-02-16T16:40:54.918Z,71.30
2019-02-16T16:43:27.456Z,61.53
2019-02-16T16:45:59.816Z,46.65
2019-02-16T16:48:32.144Z,43.83
2019-02-16T16:51:04.537Z,36.60
2019-02-16T16:53:38.680Z,37.30
2019-02-16T16:56:10.854Z,47.08
2019-02-16T16:58:43.202Z,44.95
2019-02-16T17:01:13.774Z,35.25
2019-02-16T17:03:46.974Z,83.78
2019-02-16T17:06:17.471Z,80.95
2019-02-16T17:08:51.071Z,77.78
2019-02-16T17:11:23.511Z,157.25
2019-02-16T17:13:56.312Z,120.13
2019-02-16T17:16:28.902Z,139.20
2019-02-16T17:19:01.119Z,212.95
2019-02-16T17:21:34.789Z,197.22
2019-02-16T17:24:04.966Z,156.50
2019-02-16T17:26:38.146Z,120.95
2019-02-16T17:29:13.174Z,114.75
2019-02-16T17:31:47.554Z,419.85
2019-02-16T17:34:22.805Z,296.47
2019-02-16T17:36:56.656Z,258.23
2019-02-16T17:39:30.752Z,86.45
2019-02-16T17:42:05.220Z,99.75
2019-02-16T17:44:38.179Z,102.43
2019-02-16T17:47:10.578Z,102.93
2019-02-16T17:49:43.787Z,106.33
2019-02-16T17:52:20.579Z,320.40
2019-02-16T17:54:53.377Z,244.37
2019-02-16T17:57:26.745Z,273.27
2019-02-16T18:03:27.713Z,358.73
2019-02-16T18:06:15.391Z,308.00
2019-02-16T18:08:54.842Z,266.70
2019-02-16T18:11:27.626Z,286.47
2019-02-16T18:14:09.698Z,295.17
2019-02-16T18:16:42.626Z,316.50
2019-02-16T18:19:14.988Z,248.10
2019-02-16T18:21:47.633Z,194.47
2019-02-16T18:24:20.427Z,132.10
2019-02-16T18:26:56.509Z,90.77
2019-02-16T18:29:26.911Z,72.23
2019-02-16T18:31:59.528Z,62.20
2019-02-16T18:34:32.319Z,44.87
2019-02-16T18:37:04.295Z,42.60
2019-02-16T18:39:37.463Z,53.00
2019-02-16T18:42:10.303Z,48.30
2019-02-16T18:44:43.433Z,52.03
2019-02-16T18:47:19.136Z,56.70
2019-02-16T18:49:52.167Z,82.13
2019-02-16T18:52:25.047Z,74.43
2019-02-16T18:54:57.466Z,33.77
2019-02-16T18:57:29.527Z,46.20
2019-02-16T19:00:02.974Z,57.40
2019-02-16T19:02:37.146Z,40.00
2019-02-16T19:05:10.286Z,42.13
2019-02-16T19:07:42.969Z,38.13
2019-02-16T19:10:15.135Z,38.40
2019-02-16T19:12:49.433Z,40.20
2019-02-16T19:15:22.375Z,47.83
2019-02-16T19:17:54.902Z,44.47
2019-02-16T19:20:29.721Z,41.87
2019-02-16T19:23:04.041Z,32.20
2019-02-16T19:25:36.692Z,31.53
2019-02-16T19:28:09.224Z,34.83
2019-02-16T19:30:43.594Z,36.33
2019-02-16T19:33:16.192Z,37.93
2019-02-16T19:35:48.968Z,33.00
2019-02-16T19:38:21.184Z,34.30
2019-02-16T19:40:55.111Z,40.87
2019-02-16T19:43:28.202Z,38.67
2019-02-16T19:46:00.806Z,41.53
2019-02-16T19:48:34.823Z,47.00
2019-02-16T19:51:07.166Z,49.20
2019-02-16T19:53:40.168Z,45.40
2019-02-16T19:56:13.455Z,44.90
2019-02-16T19:59:00.679Z,40.17
2019-02-16T20:01:34.954Z,48.73
2019-02-16T20:04:08.357Z,46.50
2019-02-16T20:06:42.471Z,50.63
2019-02-16T20:09:16.340Z,53.63
2019-02-16T20:11:48.978Z,54.00
2019-02-16T20:14:24.105Z,50.77
2019-02-16T20:16:55.120Z,47.27
2019-02-16T20:19:27.667Z,48.63
2019-02-16T20:21:59.956Z,55.27
2019-02-16T20:24:50.586Z,40.13
2019-02-16T20:27:57.899Z,68.30
2019-02-16T20:30:39.875Z,64.67
2019-02-16T20:33:12.667Z,55.83
2019-02-16T20:35:45.126Z,73.00
2019-02-16T20:38:17.549Z,74.47
2019-02-16T20:41:01.676Z,101.53
2019-02-16T20:43:46.517Z,154.40
2019-02-16T20:46:19.489Z,222.57
2019-02-16T20:48:52.205Z,235.77
2019-02-16T20:51:24.585Z,291.43
2019-02-16T20:53:57.632Z,282.50
2019-02-16T20:56:30.337Z,282.20
2019-02-16T20:59:02.840Z,230.67
2019-02-16T21:01:35.281Z,218.60
2019-02-16T21:04:07.643Z,193.27
2019-02-16T21:06:40.023Z,204.17
2019-02-16T21:09:12.720Z,222.60
2019-02-16T21:11:45.334Z,221.50
2019-02-16T21:14:18.035Z,197.20
2019-02-16T21:16:50.566Z,216.63
2019-02-16T21:19:23.181Z,225.37
2019-02-16T21:21:54.067Z,230.73
2019-02-16T21:24:26.630Z,222.77
2019-02-16T21:26:59.367Z,213.80
2019-02-16T21:29:32.002Z,218.80
2019-02-16T21:32:04.722Z,235.87
2019-02-16T21:34:47.269Z,250.60
2019-02-16T21:37:25.836Z,231.30
2019-02-16T21:40:00.574Z,226.97
2019-02-16T21:42:33.536Z,217.33
2019-02-16T21:45:08.114Z,212.10
2019-02-16T21:47:40.530Z,249.83
2019-02-16T21:50:14.161Z,209.77
2019-02-16T21:52:47.076Z,211.70
2019-02-16T21:55:20.036Z,216.73
2019-02-16T21:57:53.514Z,197.37
2019-02-16T22:00:27.314Z,191.83
2019-02-16T22:03:00.422Z,196.93
2019-02-16T22:05:33.381Z,192.67
2019-02-16T22:08:07.334Z,191.83
2019-02-16T22:10:41.278Z,188.73
2019-02-16T22:13:14.415Z,194.23
2019-02-16T22:15:48.113Z,193.33
2019-02-16T22:18:19.536Z,173.87
2019-02-16T22:20:51.414Z,170.70
2019-02-16T22:23:24.518Z,174.10
2019-02-16T22:25:56.155Z,182.37
2019-02-16T22:28:30.923Z,177.97
2019-02-16T22:31:01.995Z,183.50
2019-02-16T22:33:34.196Z,185.43
2019-02-16T22:36:05.794Z,178.37
2019-02-16T22:38:48.319Z,180.93
2019-02-16T22:41:22.290Z,209.83
2019-02-16T22:43:54.434Z,200.97
2019-02-16T22:46:25.701Z,202.63
2019-02-16T22:48:57.877Z,201.27
2019-02-16T22:51:29.160Z,196.47
2019-02-16T22:54:00.215Z,189.87
2019-02-16T22:56:31.211Z,179.47
2019-02-16T22:59:02.370Z,175.33
2019-02-16T23:01:33.547Z,181.30
2019-02-16T23:04:04.660Z,180.10
2019-02-16T23:06:35.826Z,133.70
2019-02-16T23:09:09.284Z,166.00
2019-02-16T23:11:39.937Z,191.13
2019-02-16T23:14:11.313Z,215.30
2019-02-16T23:16:42.989Z,213.60
2019-02-16T23:19:14.070Z,241.27
2019-02-16T23:21:45.338Z,279.00
2019-02-16T23:24:16.007Z,262.13
2019-02-16T23:26:46.580Z,289.67
2019-02-16T23:29:17.797Z,288.87
2019-02-16T23:31:49.008Z,245.90
2019-02-16T23:34:20.568Z,297.97
2019-02-16T23:36:51.588Z,309.50
2019-02-16T23:39:22.662Z,311.63
2019-02-16T23:41:53.852Z,294.93
2019-02-16T23:44:24.880Z,272.80
2019-02-16T23:46:55.983Z,243.50
2019-02-16T23:49:27.504Z,208.43
2019-02-16T23:51:59.588Z,226.90
2019-02-16T23:54:30.255Z,229.50
2019-02-16T23:57:01.515Z,219.07
2019-02-16T23:59:32.232Z,216.53
